createdAt,value
2019-04-10T00:00:37.280Z,11.45
2019-04-10T00:03:08.256Z,11.20
2019-04-10T00:05:38.289Z,12.35
2019-04-10T00:08:09.972Z,12.05
2019-04-10T00:10:40.480Z,12.15
2019-04-10T00:13:10.307Z,12.95
2019-04-10T00:15:40.336Z,13.55
2019-04-10T00:18:10.209Z,13.93
2019-04-10T00:20:42.679Z,13.55
2019-04-10T00:23:13.171Z,13.53
2019-04-10T00:25:43.438Z,13.48
2019-04-10T00:28:13.422Z,12.25
2019-04-10T00:30:43.324Z,11.68
2019-04-10T00:33:13.367Z,12.45
2019-04-10T00:35:43.755Z,12.07
2019-04-10T00:38:13.771Z,11.65
2019-04-10T00:40:43.793Z,12.15
2019-04-10T00:43:13.599Z,13.10
2019-04-10T00:45:44.002Z,12.40
2019-04-10T00:48:13.892Z,11.85
2019-04-10T00:50:44.601Z,12.43
2019-04-10T00:53:14.561Z,12.23
2019-04-10T00:55:44.395Z,12.75
2019-04-10T00:58:14.288Z,13.03
2019-04-10T01:00:44.122Z,12.98
2019-04-10T01:03:15.965Z,12.80
2019-04-10T01:05:45.857Z,13.18
2019-04-10T01:08:16.111Z,12.70
2019-04-10T01:10:46.300Z,13.35
2019-04-10T01:13:16.714Z,13.85
2019-04-10T01:15:46.903Z,13.03
2019-04-10T01:18:17.188Z,14.45
2019-04-10T01:20:48.019Z,14.35
2019-04-10T01:23:18.100Z,14.68
2019-04-10T01:25:48.408Z,13.90
2019-04-10T01:28:18.285Z,15.30
2019-04-10T01:30:48.645Z,15.10
2019-04-10T01:33:18.706Z,15.05
2019-04-10T01:35:48.802Z,14.95
2019-04-10T01:38:19.620Z,16.57
2019-04-10T01:40:51.167Z,17.07
2019-04-10T01:43:20.990Z,18.15
2019-04-10T01:45:51.560Z,19.15
2019-04-10T01:48:21.534Z,19.35
2019-04-10T01:50:51.439Z,20.23
2019-04-10T01:53:21.780Z,19.85
2019-04-10T01:55:51.855Z,20.82
2019-04-10T01:58:23.319Z,20.72
2019-04-10T02:00:54.813Z,20.35
2019-04-10T02:03:25.648Z,19.52
2019-04-10T02:05:56.684Z,19.67
2019-04-10T02:08:26.800Z,20.52
2019-04-10T02:10:56.741Z,21.33
2019-04-10T02:13:27.535Z,20.95
2019-04-10T02:15:58.529Z,22.40
2019-04-10T02:18:29.459Z,23.25
2019-04-10T02:20:59.581Z,23.87
2019-04-10T02:23:30.251Z,23.70
2019-04-10T02:26:01.262Z,24.55
2019-04-10T02:28:31.211Z,24.27
2019-04-10T02:31:02.725Z,23.65
2019-04-10T02:33:33.626Z,22.55
2019-04-10T02:36:04.255Z,22.75
2019-04-10T02:38:49.243Z,22.82
2019-04-10T02:41:08.171Z,21.60
2019-04-10T02:43:39.694Z,21.30
2019-04-10T02:46:11.276Z,22.05
2019-04-10T02:48:41.584Z,21.95
2019-04-10T02:51:11.508Z,22.55
2019-04-10T02:53:41.384Z,22.93
2019-04-10T02:56:11.822Z,24.12
2019-04-10T02:58:47.036Z,23.50
2019-04-10T03:01:17.464Z,24.18
2019-04-10T03:03:47.554Z,25.32
2019-04-10T03:06:18.736Z,24.52
2019-04-10T03:09:05.931Z,23.18
2019-04-10T03:11:22.191Z,23.50
2019-04-10T03:13:53.318Z,24.37
2019-04-10T03:16:23.809Z,23.38
2019-04-10T03:18:53.671Z,23.40
2019-04-10T03:21:23.570Z,23.30
2019-04-10T03:23:53.798Z,24.77
2019-04-10T03:26:25.633Z,23.38
2019-04-10T03:28:55.685Z,24.70
2019-04-10T03:31:27.787Z,24.85
2019-04-10T03:34:03.325Z,25.02
2019-04-10T03:36:38.004Z,25.70
2019-04-10T03:39:10.465Z,24.98
2019-04-10T03:41:42.145Z,25.77
2019-04-10T03:44:12.138Z,25.32
2019-04-10T03:46:42.698Z,28.52
2019-04-10T03:49:13.640Z,26.77
2019-04-10T03:51:44.945Z,27.20
2019-04-10T03:54:15.243Z,28.02
2019-04-10T03:56:45.696Z,26.15
2019-04-10T03:59:15.920Z,27.73
2019-04-10T04:01:45.789Z,26.37
2019-04-10T04:04:15.677Z,26.80
2019-04-10T04:06:46.429Z,26.62
2019-04-10T04:09:17.516Z,24.47
2019-04-10T04:11:48.122Z,25.17
2019-04-10T04:14:18.064Z,24.63
2019-04-10T04:16:49.070Z,24.18
2019-04-10T04:19:19.033Z,24.07
2019-04-10T04:21:50.280Z,22.67
2019-04-10T04:24:23.538Z,24.18
2019-04-10T04:26:53.473Z,21.40
2019-04-10T04:29:23.304Z,22.82
2019-04-10T04:31:53.181Z,22.30
2019-04-10T04:34:23.070Z,22.77
2019-04-10T04:36:53.580Z,23.65
2019-04-10T04:39:26.973Z,21.27
2019-04-10T04:41:55.073Z,20.12
2019-04-10T04:44:24.907Z,17.55
2019-04-10T04:46:54.851Z,16.70
2019-04-10T04:49:24.758Z,16.62
2019-04-10T04:51:54.720Z,16.07
2019-04-10T04:54:25.511Z,13.98
2019-04-10T04:56:56.153Z,13.05
2019-04-10T04:59:28.119Z,13.62
2019-04-10T05:01:58.181Z,13.65
2019-04-10T05:04:28.024Z,13.32
2019-04-10T05:06:59.849Z,12.88
2019-04-10T05:09:35.604Z,12.90
2019-04-10T05:12:01.439Z,14.53
2019-04-10T05:14:31.528Z,16.20
2019-04-10T05:17:01.808Z,16.55
2019-04-10T05:19:32.002Z,14.98
2019-04-10T05:22:01.959Z,16.00
2019-04-10T05:24:32.045Z,15.80
2019-04-10T05:27:02.340Z,17.92
2019-04-10T05:29:32.125Z,18.55
2019-04-10T05:32:02.071Z,19.57
2019-04-10T05:34:31.895Z,18.87
2019-04-10T05:37:01.746Z,20.43
2019-04-10T05:39:40.559Z,19.85
2019-04-10T05:42:04.208Z,19.40
2019-04-10T05:44:34.297Z,19.82
2019-04-10T05:47:05.401Z,19.32
2019-04-10T05:49:37.276Z,18.35
2019-04-10T05:52:08.179Z,19.20
2019-04-10T05:54:39.464Z,18.52
2019-04-10T05:57:10.379Z,19.27
2019-04-10T05:59:40.464Z,18.62
2019-04-10T06:02:10.449Z,19.65
2019-04-10T06:04:41.210Z,18.87
2019-04-10T06:07:12.699Z,20.37
2019-04-10T06:09:54.003Z,19.82
2019-04-10T06:12:14.297Z,19.65
2019-04-10T06:14:44.269Z,20.35
2019-04-10T06:17:14.202Z,20.02
2019-04-10T06:19:44.789Z,22.20
2019-04-10T06:22:14.818Z,23.25
2019-04-10T06:24:44.787Z,23.30
2019-04-10T06:27:14.772Z,25.20
2019-04-10T06:29:46.257Z,25.85
2019-04-10T06:32:17.055Z,24.77
2019-04-10T06:34:48.046Z,24.47
2019-04-10T06:37:18.249Z,25.05
2019-04-10T06:39:49.022Z,28.02
2019-04-10T06:42:20.316Z,26.20
2019-04-10T06:44:50.471Z,25.27
2019-04-10T06:47:20.421Z,25.08
2019-04-10T06:49:50.531Z,25.48
2019-04-10T06:52:20.704Z,25.08
2019-04-10T06:54:51.107Z,26.02
2019-04-10T06:57:21.086Z,26.90
2019-04-10T06:59:51.050Z,26.25
2019-04-10T07:02:27.344Z,26.07
2019-04-10T07:04:55.971Z,24.43
2019-04-10T07:07:27.190Z,24.12
2019-04-10T07:09:57.128Z,24.72
2019-04-10T07:12:32.146Z,22.75
2019-04-10T07:15:00.687Z,23.05
2019-04-10T07:17:35.681Z,22.85
2019-04-10T07:20:03.753Z,22.25
2019-04-10T07:22:33.792Z,23.07
2019-04-10T07:25:04.662Z,21.33
2019-04-10T07:27:36.956Z,20.35
2019-04-10T07:30:07.969Z,19.82
2019-04-10T07:32:42.127Z,20.60
2019-04-10T07:35:09.424Z,21.12
2019-04-10T07:37:40.359Z,21.87
2019-04-10T07:40:12.250Z,19.45
2019-04-10T07:42:43.346Z,19.15
2019-04-10T07:45:14.076Z,17.70
2019-04-10T07:47:44.134Z,17.12
2019-04-10T07:50:14.372Z,19.50
2019-04-10T07:52:45.896Z,19.00
2019-04-10T07:55:16.897Z,18.37
2019-04-10T07:57:48.567Z,19.10
2019-04-10T08:00:18.525Z,17.48
2019-04-10T08:02:49.147Z,16.05
2019-04-10T08:05:19.309Z,15.43
2019-04-10T08:07:49.306Z,16.27
2019-04-10T08:10:20.012Z,16.82
2019-04-10T08:12:53.338Z,16.30
2019-04-10T08:15:21.646Z,15.88
2019-04-10T08:17:51.869Z,15.03
2019-04-10T08:20:22.020Z,16.37
2019-04-10T08:22:51.941Z,15.28
2019-04-10T08:25:22.714Z,12.70
2019-04-10T08:27:52.772Z,10.72
2019-04-10T08:30:23.669Z,8.65
2019-04-10T08:33:00.614Z,10.40
2019-04-10T08:35:25.297Z,9.03
2019-04-10T08:37:55.195Z,8.93
2019-04-10T08:40:25.084Z,9.00
2019-04-10T08:42:55.733Z,9.68
2019-04-10T08:45:35.766Z,9.03
2019-04-10T08:47:57.382Z,10.38
2019-04-10T08:50:28.063Z,10.38
2019-04-10T08:52:58.045Z,9.55
2019-04-10T08:55:28.938Z,9.83
2019-04-10T08:57:58.892Z,9.50
2019-04-10T09:00:28.925Z,11.15
2019-04-10T09:03:00.227Z,11.48
2019-04-10T09:05:30.245Z,10.85
2019-04-10T09:08:00.339Z,13.58
2019-04-10T09:10:30.363Z,15.10
2019-04-10T09:13:00.294Z,15.28
2019-04-10T09:15:30.191Z,15.20
2019-04-10T09:18:01.948Z,15.58
2019-04-10T09:20:32.936Z,16.50
2019-04-10T09:23:21.502Z,17.57
2019-04-10T09:25:35.349Z,22.52
2019-04-10T09:28:06.387Z,16.97
2019-04-10T09:30:37.246Z,16.10
2019-04-10T09:33:18.759Z,15.30
2019-04-10T09:35:38.744Z,15.03
2019-04-10T09:38:08.583Z,15.48
2019-04-10T09:40:38.482Z,15.65
2019-04-10T09:43:09.331Z,17.92
2019-04-10T09:45:39.363Z,17.00
2019-04-10T09:48:09.181Z,16.30
2019-04-10T09:50:39.620Z,16.57
2019-04-10T09:53:10.718Z,17.05
2019-04-10T09:55:40.727Z,17.07
2019-04-10T09:58:10.581Z,16.82
2019-04-10T10:00:40.477Z,25.77
2019-04-10T10:03:11.838Z,16.85
2019-04-10T10:05:42.455Z,18.45
2019-04-10T10:08:12.416Z,20.05
2019-04-10T10:10:42.346Z,21.70
2019-04-10T10:13:13.083Z,21.70
2019-04-10T10:15:43.235Z,22.00
2019-04-10T10:18:14.350Z,23.65
2019-04-10T10:20:44.253Z,23.30
2019-04-10T10:23:14.095Z,21.73
2019-04-10T10:25:43.920Z,21.68
2019-04-10T10:28:15.234Z,21.73
2019-04-10T10:30:45.245Z,23.00
2019-04-10T10:33:17.330Z,23.83
2019-04-10T10:35:47.524Z,24.02
2019-04-10T10:38:17.347Z,23.60
2019-04-10T10:40:47.314Z,23.35
2019-04-10T10:43:18.307Z,23.27
2019-04-10T10:45:49.177Z,23.40
2019-04-10T10:48:19.856Z,25.48
2019-04-10T10:50:49.990Z,25.35
2019-04-10T10:53:19.948Z,23.98
2019-04-10T10:55:49.807Z,23.07
2019-04-10T10:58:21.760Z,22.62
2019-04-10T11:00:53.698Z,23.45
2019-04-10T11:03:24.528Z,24.82
2019-04-10T11:05:55.713Z,24.92
2019-04-10T11:08:25.549Z,23.50
2019-04-10T11:10:57.199Z,23.80
2019-04-10T11:13:26.909Z,23.07
2019-04-10T11:15:57.111Z,23.42
2019-04-10T11:18:26.980Z,24.25
2019-04-10T11:21:02.919Z,24.20
2019-04-10T11:23:28.538Z,24.72
2019-04-10T11:25:59.539Z,24.80
2019-04-10T11:31:01.822Z,22.82
2019-04-10T11:33:32.953Z,22.62
2019-04-10T11:36:03.784Z,23.47
2019-04-10T11:38:33.791Z,24.82
2019-04-10T11:41:06.360Z,21.35
2019-04-10T11:43:37.718Z,22.20
2019-04-10T11:46:10.302Z,22.13
2019-04-10T11:48:44.644Z,20.35
2019-04-10T11:51:13.450Z,22.58
2019-04-10T11:53:47.214Z,21.80
2019-04-10T11:56:17.533Z,23.07
2019-04-10T11:58:53.728Z,22.82
2019-04-10T12:01:21.220Z,19.52
2019-04-10T12:03:53.939Z,13.00
2019-04-10T12:06:24.695Z,12.82
2019-04-10T12:09:13.300Z,9.73
2019-04-10T12:11:24.995Z,13.95
2019-04-10T12:13:54.956Z,15.63
2019-04-10T12:16:25.181Z,15.85
2019-04-10T12:18:55.951Z,16.37
2019-04-10T12:21:27.409Z,16.50
2019-04-10T12:23:57.380Z,18.32
2019-04-10T12:26:27.631Z,17.00
2019-04-10T12:28:58.206Z,19.00
2019-04-10T12:31:28.189Z,20.95
2019-04-10T12:33:59.927Z,20.55
2019-04-10T12:36:30.990Z,20.25
2019-04-10T12:39:00.973Z,18.52
2019-04-10T12:41:33.204Z,16.62
2019-04-10T12:44:03.422Z,17.02
2019-04-10T12:46:33.345Z,17.25
2019-04-10T12:49:03.836Z,19.65
2019-04-10T12:51:38.168Z,22.40
2019-04-10T12:56:37.993Z,18.87
2019-04-10T12:59:08.922Z,18.00
2019-04-10T13:01:38.882Z,19.35
2019-04-10T13:04:08.919Z,21.15
2019-04-10T13:06:39.929Z,20.60
2019-04-10T13:09:13.024Z,20.20
2019-04-10T13:11:45.385Z,20.90
2019-04-10T13:14:17.287Z,21.52
2019-04-10T13:16:47.904Z,21.55
2019-04-10T13:19:18.791Z,21.37
2019-04-10T13:21:51.714Z,20.82
2019-04-10T13:24:23.791Z,19.00
2019-04-10T13:26:55.052Z,17.57
2019-04-10T13:29:24.960Z,16.75
2019-04-10T13:31:55.782Z,16.00
2019-04-10T13:34:26.907Z,17.70
2019-04-10T13:36:56.841Z,16.17
2019-04-10T13:39:27.733Z,16.73
2019-04-10T13:41:58.797Z,15.20
2019-04-10T13:44:28.852Z,15.05
2019-04-10T13:46:59.760Z,16.27
2019-04-10T13:49:30.295Z,16.12
2019-04-10T13:52:01.460Z,16.60
2019-04-10T13:54:32.646Z,15.95
2019-04-10T13:57:03.472Z,15.58
2019-04-10T13:59:33.481Z,14.73
2019-04-10T14:02:04.778Z,16.30
2019-04-10T14:04:35.612Z,15.98
2019-04-10T14:07:07.382Z,17.90
2019-04-10T14:09:43.997Z,16.05
2019-04-10T14:12:10.035Z,17.37
2019-04-10T14:14:40.469Z,17.25
2019-04-10T14:17:11.080Z,16.57
2019-04-10T14:19:41.519Z,17.67
2019-04-10T14:22:11.475Z,16.67
2019-04-10T14:24:45.226Z,16.93
2019-04-10T14:27:18.343Z,16.77
2019-04-10T14:29:49.051Z,12.07
2019-04-10T14:32:21.622Z,7.47
2019-04-10T14:34:52.430Z,6.72
2019-04-10T14:37:23.243Z,5.53
2019-04-10T14:39:53.191Z,6.20
2019-04-10T14:42:23.164Z,5.00
2019-04-10T14:44:53.145Z,4.70
2019-04-10T14:47:23.881Z,5.47
2019-04-10T14:49:54.890Z,5.35
2019-04-10T14:52:27.326Z,6.25
2019-04-10T14:54:57.238Z,6.22
2019-04-10T14:57:27.266Z,5.95
2019-04-10T14:59:57.941Z,6.22
2019-04-10T15:02:27.800Z,14.70
2019-04-10T15:04:57.704Z,8.00
2019-04-10T15:07:27.598Z,6.72
2019-04-10T15:09:57.530Z,5.90
2019-04-10T15:12:28.087Z,7.30
2019-04-10T15:14:59.583Z,6.70
2019-04-10T15:17:30.811Z,7.35
2019-04-10T15:20:00.989Z,8.20
2019-04-10T15:22:31.783Z,8.18
2019-04-10T15:25:01.774Z,7.20
2019-04-10T15:27:35.447Z,6.67
2019-04-10T15:30:08.341Z,5.40
2019-04-10T15:32:38.705Z,5.17
2019-04-10T15:35:10.429Z,5.25
2019-04-10T15:37:41.584Z,5.72
2019-04-10T15:40:19.999Z,5.30
2019-04-10T15:42:46.044Z,5.70
2019-04-10T15:45:16.431Z,5.85
2019-04-10T15:47:52.677Z,5.17
2019-04-10T15:50:18.099Z,4.40
2019-04-10T15:52:49.351Z,4.22
2019-04-10T15:55:19.513Z,4.85
2019-04-10T15:57:53.820Z,4.42
2019-04-10T16:00:21.234Z,4.40
2019-04-10T16:02:51.294Z,4.72
2019-04-10T16:05:21.636Z,4.83
2019-04-10T16:07:51.741Z,4.45
2019-04-10T16:10:29.089Z,4.72
2019-04-10T16:13:14.531Z,4.83
2019-04-10T16:15:44.987Z,5.30
2019-04-10T16:18:19.324Z,5.53
2019-04-10T16:20:50.873Z,6.20
2019-04-10T16:23:22.325Z,6.65
2019-04-10T16:25:54.491Z,5.92
2019-04-10T16:28:25.372Z,5.75
2019-04-10T16:30:55.248Z,6.10
2019-04-10T16:33:25.437Z,6.33
2019-04-10T16:35:55.397Z,6.80
2019-04-10T16:38:25.435Z,6.67
2019-04-10T16:40:56.963Z,6.50
2019-04-10T16:43:26.929Z,6.22
2019-04-10T16:45:57.277Z,6.37
2019-04-10T16:48:28.798Z,5.65
2019-04-10T16:50:59.697Z,5.83
2019-04-10T16:53:29.943Z,6.62
2019-04-10T16:56:01.030Z,5.62
2019-04-10T16:58:32.022Z,5.62
2019-04-10T17:01:02.305Z,6.22
2019-04-10T17:03:33.773Z,5.95
2019-04-10T17:06:04.009Z,5.70
2019-04-10T17:08:34.282Z,5.40
2019-04-10T17:11:07.784Z,5.37
2019-04-10T17:13:38.494Z,4.70
2019-04-10T17:16:09.276Z,4.65
2019-04-10T17:18:39.316Z,4.33
2019-04-10T17:21:11.096Z,3.70
2019-04-10T17:23:41.198Z,3.85
2019-04-10T17:26:11.382Z,3.95
2019-04-10T17:28:41.269Z,3.80
2019-04-10T17:31:11.535Z,5.92
2019-04-10T17:33:41.903Z,4.37
2019-04-10T17:36:12.025Z,4.00
2019-04-10T17:38:42.798Z,4.40
2019-04-10T17:41:12.778Z,4.20
2019-04-10T17:43:43.469Z,4.17
2019-04-10T17:46:13.450Z,3.92
2019-04-10T17:48:44.156Z,4.00
2019-04-10T17:51:14.700Z,3.92
2019-04-10T17:53:45.393Z,4.65
2019-04-10T17:56:18.088Z,4.20
2019-04-10T17:58:47.986Z,4.10
2019-04-10T18:01:19.433Z,4.62
2019-04-10T18:03:54.777Z,4.33
2019-04-10T18:06:21.440Z,4.40
2019-04-10T18:08:51.495Z,4.37
2019-04-10T18:11:22.501Z,3.75
2019-04-10T18:13:53.066Z,4.08
2019-04-10T18:16:22.934Z,4.10
2019-04-10T18:18:53.864Z,4.37
2019-04-10T18:21:24.579Z,4.60
2019-04-10T18:23:55.780Z,4.70
2019-04-10T18:26:25.767Z,5.03
2019-04-10T18:28:56.130Z,5.40
2019-04-10T18:31:27.785Z,5.10
2019-04-10T18:33:58.587Z,4.85
2019-04-10T18:36:29.772Z,5.35
2019-04-10T18:38:59.839Z,5.37
2019-04-10T18:41:30.026Z,5.30
2019-04-10T18:44:00.537Z,5.03
2019-04-10T18:46:31.476Z,5.00
2019-04-10T18:49:01.289Z,5.50
2019-04-10T18:51:32.028Z,5.08
2019-04-10T18:54:02.006Z,5.37
2019-04-10T18:56:31.965Z,4.92
2019-04-10T18:59:06.100Z,4.90
2019-04-10T19:01:53.611Z,5.58
2019-04-10T19:04:32.819Z,6.03
2019-04-10T19:07:02.812Z,6.00
2019-04-10T19:09:34.447Z,6.50
2019-04-10T19:12:04.513Z,5.85
2019-04-10T19:14:36.613Z,6.17
2019-04-10T19:17:06.746Z,5.85
2019-04-10T19:19:40.401Z,7.03
2019-04-10T19:22:09.879Z,6.45
2019-04-10T19:24:39.939Z,6.60
2019-04-10T19:27:11.815Z,7.17
2019-04-10T19:29:42.427Z,7.25
2019-04-10T19:32:14.146Z,7.40
2019-04-10T19:34:43.954Z,7.12
2019-04-10T19:37:14.516Z,7.95
2019-04-10T19:39:44.675Z,8.40
2019-04-10T19:42:15.613Z,9.60
2019-04-10T19:44:45.669Z,9.03
2019-04-10T19:47:17.935Z,9.20
2019-04-10T19:49:48.929Z,10.40
2019-04-10T19:52:18.767Z,10.28
2019-04-10T19:54:49.304Z,10.90
2019-04-10T19:57:19.353Z,10.65
2019-04-10T19:59:50.223Z,9.93
2019-04-10T20:02:20.404Z,10.30
2019-04-10T20:04:52.699Z,10.40
2019-04-10T20:07:22.844Z,11.30
2019-04-10T20:09:52.879Z,10.08
2019-04-10T20:12:22.749Z,10.38
2019-04-10T20:14:53.363Z,10.90
2019-04-10T20:17:24.041Z,11.63
2019-04-10T20:19:56.473Z,10.45
2019-04-10T20:22:27.813Z,10.90
2019-04-10T20:24:57.262Z,11.50
2019-04-10T20:27:27.803Z,11.55
2019-04-10T20:29:57.681Z,11.35
2019-04-10T20:32:28.073Z,11.63
2019-04-10T20:34:58.098Z,11.88
2019-04-10T20:37:29.051Z,11.60
2019-04-10T20:39:59.015Z,11.57
2019-04-10T20:42:29.920Z,12.63
2019-04-10T20:45:00.827Z,11.45
2019-04-10T20:47:30.998Z,9.88
2019-04-10T20:50:01.877Z,10.03
2019-04-10T20:52:32.977Z,8.40
2019-04-10T20:55:03.593Z,8.70
2019-04-10T20:57:33.587Z,8.78
2019-04-10T21:00:05.628Z,9.10
2019-04-10T21:02:36.223Z,9.25
2019-04-10T21:05:09.812Z,8.63
2019-04-10T21:07:39.562Z,8.98
2019-04-10T21:10:09.637Z,9.55
2019-04-10T21:12:39.879Z,9.80
2019-04-10T21:15:11.121Z,8.93
2019-04-10T21:17:42.499Z,9.13
2019-04-10T21:20:15.918Z,9.88
2019-04-10T21:22:45.807Z,9.08
2019-04-10T21:25:15.625Z,9.03
2019-04-10T21:27:48.781Z,9.73
2019-04-10T21:30:22.086Z,9.43
2019-04-10T21:32:56.544Z,9.10
2019-04-10T21:35:27.848Z,10.03
2019-04-10T21:37:59.305Z,10.00
2019-04-10T21:40:29.123Z,9.83
2019-04-10T21:42:59.019Z,10.15
2019-04-10T21:45:30.619Z,9.98
2019-04-10T21:48:10.517Z,10.20
2019-04-10T21:50:41.990Z,10.78
2019-04-10T21:53:12.235Z,10.58
2019-04-10T21:55:42.156Z,11.73
2019-04-10T21:58:17.895Z,11.78
2019-04-10T22:01:01.631Z,11.10
2019-04-10T22:03:33.782Z,12.15
2019-04-10T22:06:19.859Z,11.83
2019-04-10T22:09:10.578Z,12.05
2019-04-10T22:11:43.376Z,11.60
2019-04-10T22:14:21.493Z,12.40
2019-04-10T22:16:52.549Z,11.90
2019-04-10T22:19:26.933Z,12.33
2019-04-10T22:21:57.799Z,12.45
2019-04-10T22:24:27.941Z,12.65
2019-04-10T22:26:58.611Z,12.93
2019-04-10T22:29:28.572Z,12.78
2019-04-10T22:31:58.476Z,12.75
2019-04-10T22:34:34.241Z,11.48
2019-04-10T22:37:04.278Z,10.60
2019-04-10T22:39:34.344Z,10.60
2019-04-10T22:42:05.299Z,11.15
2019-04-10T22:44:41.953Z,10.65
2019-04-10T22:47:07.131Z,10.43
2019-04-10T22:49:37.126Z,11.08
2019-04-10T22:52:10.943Z,10.82
2019-04-10T22:54:40.779Z,10.98
2019-04-10T22:57:10.672Z,11.35
2019-04-10T22:59:40.569Z,10.90
2019-04-10T23:02:12.047Z,11.22
2019-04-10T23:04:42.820Z,11.50
2019-04-10T23:07:13.521Z,10.95
2019-04-10T23:09:44.415Z,11.05
2019-04-10T23:12:16.213Z,11.60
2019-04-10T23:14:47.027Z,11.15
2019-04-10T23:17:16.982Z,12.30
2019-04-10T23:19:46.885Z,13.68
2019-04-10T23:22:16.870Z,13.35
2019-04-10T23:24:47.662Z,13.18
2019-04-10T23:27:17.748Z,12.25
2019-04-10T23:29:48.598Z,14.07
2019-04-10T23:32:19.427Z,14.65
2019-04-10T23:34:50.517Z,14.10
2019-04-10T23:37:20.606Z,14.95
2019-04-10T23:39:50.567Z,15.25
2019-04-10T23:42:21.335Z,16.57
2019-04-10T23:44:51.383Z,16.42
2019-04-10T23:47:22.168Z,16.02
2019-04-10T23:49:52.181Z,17.73
2019-04-10T23:52:22.000Z,16.37
2019-04-10T23:54:51.904Z,17.73
2019-04-10T23:57:21.730Z,16.82
2019-04-10T23:59:51.553Z,17.80
